Time;durP1;ratioP1;P1;durP2;ratioP2;P2;SDS_P1;SDS_P2;PMS_P1;PMS_P2;Temp;Humidity;BMP_temperature;BMP_pressure;BME280_temperature;BME280_humidity;BME280_pressure;Samples;Min_cycle;Max_cycle;Signal;HPM_P1;HPM_P2
2023/06/22 00:02:16;;;;;;;12.95;5.95;;;23.90;96.80;;;;;;5096051;28;20020;-70
2023/06/22 00:04:42;;;;;;;15.73;6.30;;;23.90;96.70;;;;;;5114223;27;20024;-73
2023/06/22 00:07:08;;;;;;;13.73;6.22;;;23.90;96.50;;;;;;5132213;27;20023;-70
2023/06/22 00:09:34;;;;;;;13.23;5.72;;;23.80;96.60;;;;;;5134193;27;20041;-71
2023/06/22 00:11:59;;;;;;;26.35;6.10;;;23.80;96.50;;;;;;5134601;27;20023;-71
2023/06/22 00:14:25;;;;;;;18.35;6.18;;;23.80;96.30;;;;;;5133916;27;20023;-71
2023/06/22 00:16:54;;;;;;;16.98;5.45;;;23.90;96.30;;;;;;5134650;27;20027;-71
2023/06/22 00:19:23;;;;;;;18.83;6.32;;;23.90;96.40;;;;;;5134121;27;20443;-73
2023/06/22 00:21:53;;;;;;;18.70;6.45;;;23.90;96.30;;;;;;5134448;27;20062;-71
2023/06/22 00:24:21;;;;;;;13.43;5.38;;;23.80;96.40;;;;;;5134419;27;20030;-70
2023/06/22 00:26:50;;;;;;;14.55;5.95;;;23.90;96.30;;;;;;5134349;27;20113;-70
2023/06/22 00:29:16;;;;;;;14.77;5.53;;;23.90;96.20;;;;;;5133975;27;20031;-70
2023/06/22 00:31:42;;;;;;;18.42;5.70;;;23.80;96.20;;;;;;5133888;27;20019;-70
2023/06/22 00:34:08;;;;;;;14.73;5.63;;;23.80;96.50;;;;;;5133967;27;20080;-69
2023/06/22 00:36:35;;;;;;;14.18;5.22;;;23.80;96.50;;;;;;5133792;27;20114;-70
2023/06/22 00:39:01;;;;;;;16.83;6.03;;;23.80;96.40;;;;;;5134197;27;20031;-70
2023/06/22 00:41:29;;;;;;;14.65;6.47;;;23.80;96.40;;;;;;5133758;27;20027;-70
2023/06/22 00:43:55;;;;;;;14.57;6.07;;;23.70;96.50;;;;;;5133169;27;20027;-70
2023/06/22 00:46:22;;;;;;;13.18;5.32;;;23.60;96.60;;;;;;5115658;27;20472;-70
2023/06/22 00:48:48;;;;;;;16.90;5.57;;;23.70;96.70;;;;;;5113419;28;20421;-70
2023/06/22 00:51:14;;;;;;;18.90;5.68;;;23.60;96.70;;;;;;5113402;28;20031;-70
2023/06/22 00:53:40;;;;;;;20.90;6.10;;;23.60;96.60;;;;;;5112497;28;20149;-70
2023/06/22 00:56:08;;;;;;;16.23;5.88;;;23.70;96.60;;;;;;5113381;28;20440;-70
2023/06/22 00:58:35;;;;;;;14.40;5.40;;;23.60;96.60;;;;;;5112935;28;20027;-70
2023/06/22 01:01:02;;;;;;;15.55;5.82;;;23.60;96.80;;;;;;5113386;28;20110;-70
2023/06/22 01:03:27;;;;;;;22.58;5.72;;;23.60;96.70;;;;;;5112980;28;20031;-70
2023/06/22 01:06:01;;;;;;;21.98;5.80;;;23.60;97.10;;;;;;5113357;28;20047;-69
2023/06/22 01:08:41;;;;;;;18.33;6.00;;;23.50;98.00;;;;;;5112993;28;20023;-71
2023/06/22 01:11:22;;;;;;;16.20;5.43;;;23.50;98.70;;;;;;5113327;28;20027;-71
2023/06/22 01:14:18;;;;;;;12.77;5.18;;;23.50;99.00;;;;;;5112952;28;20028;-71
2023/06/22 01:16:45;;;;;;;10.18;4.93;;;23.50;98.90;;;;;;5112917;28;20332;-71
2023/06/22 01:19:22;;;;;;;16.08;4.90;;;23.50;99.00;;;;;;5113175;28;20312;-71
2023/06/22 01:21:49;;;;;;;17.35;5.22;;;23.40;99.20;;;;;;5112834;28;20099;-71
2023/06/22 01:24:20;;;;;;;15.52;5.70;;;23.40;99.30;;;;;;5113175;28;20055;-71
2023/06/22 01:26:55;;;;;;;10.70;4.57;;;23.40;99.30;;;;;;5112704;28;20464;-70
2023/06/22 01:29:23;;;;;;;10.52;5.55;;;23.40;99.70;;;;;;5113082;28;20123;-70
2023/06/22 01:31:49;;;;;;;14.25;5.18;;;23.40;99.60;;;;;;5112702;28;20047;-69
2023/06/22 01:34:16;;;;;;;14.07;6.30;;;23.40;99.80;;;;;;5117013;28;20383;-71
2023/06/22 01:36:43;;;;;;;16.38;5.63;;;23.30;99.70;;;;;;5133198;28;20368;-71
2023/06/22 01:39:10;;;;;;;14.45;6.32;;;23.30;99.80;;;;;;5115312;28;20386;-71
2023/06/22 01:41:37;;;;;;;16.63;5.95;;;23.30;99.50;;;;;;5132719;28;20472;-71
2023/06/22 01:44:07;;;;;;;15.90;5.80;;;23.30;99.10;;;;;;5115036;28;20593;-71
2023/06/22 01:46:37;;;;;;;18.50;5.93;;;23.30;99.20;;;;;;5132567;28;20059;-71
2023/06/22 01:49:03;;;;;;;14.32;6.03;;;23.30;99.40;;;;;;5133572;28;20038;-71
2023/06/22 01:51:30;;;;;;;18.58;5.82;;;23.20;99.30;;;;;;5133040;28;20032;-71
2023/06/22 01:53:55;;;;;;;19.95;6.40;;;23.20;99.60;;;;;;5133335;28;20034;-71
2023/06/22 01:56:21;;;;;;;11.18;5.20;;;23.20;99.50;;;;;;5133351;28;20023;-71
2023/06/22 01:59:26;;;;;;;14.10;5.50;;;23.20;99.90;;;;;;5132776;28;20225;-71
2023/06/22 02:02:04;;;;;;;12.45;5.65;;;23.20;99.50;;;;;;5116825;28;20041;-71
2023/06/22 02:04:56;;;;;;;20.33;5.95;;;23.20;99.80;;;;;;5114087;28;20024;-70
2023/06/22 02:07:24;;;;;;;13.02;5.93;;;23.10;99.80;;;;;;5116641;28;20024;-69
2023/06/22 02:09:52;;;;;;;12.25;5.25;;;23.10;99.90;;;;;;5115812;28;20034;-70
2023/06/22 02:12:21;;;;;;;10.13;4.70;;;23.10;99.90;;;;;;5116335;28;20027;-70
2023/06/22 02:14:47;;;;;;;15.07;5.07;;;23.00;99.90;;;;;;5116024;28;20052;-69
2023/06/22 02:17:13;;;;;;;11.57;5.07;;;23.00;99.90;;;;;;5116397;28;20027;-69
2023/06/22 02:19:42;;;;;;;12.95;4.85;;;23.00;99.90;;;;;;5097217;28;20044;-69
2023/06/22 02:22:08;;;;;;;14.95;6.13;;;22.90;99.90;;;;;;5117434;28;20020;-70
2023/06/22 02:24:33;;;;;;;12.13;5.22;;;23.00;99.90;;;;;;5118675;28;20038;-70
2023/06/22 02:27:01;;;;;;;13.55;5.20;;;22.90;99.90;;;;;;5119352;28;20511;-70
2023/06/22 02:29:28;;;;;;;9.93;4.70;;;22.90;99.90;;;;;;5116164;28;20060;-70
2023/06/22 02:31:54;;;;;;;9.55;4.82;;;22.90;99.90;;;;;;5115515;28;20031;-70
2023/06/22 02:34:21;;;;;;;7.43;4.65;;;22.80;99.90;;;;;;5115734;28;20107;-70
2023/06/22 02:36:51;;;;;;;12.63;4.72;;;22.80;99.90;;;;;;5115376;28;20023;-69
2023/06/22 02:39:22;;;;;;;12.88;5.22;;;22.80;99.90;;;;;;5115403;28;20065;-70
2023/06/22 02:41:53;;;;;;;8.38;5.20;;;22.80;99.90;;;;;;5115390;28;20055;-70
2023/06/22 02:44:20;;;;;;;7.82;5.00;;;22.80;99.90;;;;;;5115596;28;20459;-70
2023/06/22 02:46:47;;;;;;;14.40;5.20;;;22.70;99.90;;;;;;5115010;28;20097;-70
2023/06/22 02:49:13;;;;;;;14.40;5.68;;;22.70;99.90;;;;;;5118044;27;20066;-70
2023/06/22 02:51:41;;;;;;;12.82;5.47;;;22.70;99.90;;;;;;5115008;28;20472;-70
2023/06/22 02:54:07;;;;;;;11.70;5.07;;;22.70;99.90;;;;;;5115606;28;20024;-70
2023/06/22 02:56:32;;;;;;;11.15;5.15;;;22.60;99.90;;;;;;5115302;28;20031;-71
2023/06/22 02:59:01;;;;;;;13.13;4.70;;;22.60;99.90;;;;;;5115690;28;20456;-71
2023/06/22 03:01:27;;;;;;;14.95;5.50;;;22.60;99.90;;;;;;5115538;28;20105;-71
2023/06/22 03:03:54;;;;;;;14.27;5.25;;;22.60;99.90;;;;;;5115076;28;20034;-71
2023/06/22 03:06:23;;;;;;;10.15;4.60;;;22.60;99.90;;;;;;5115495;28;20081;-71
2023/06/22 03:08:50;;;;;;;14.43;5.57;;;22.60;99.90;;;;;;5115214;28;20028;-71
2023/06/22 03:11:15;;;;;;;9.73;4.93;;;22.60;99.90;;;;;;5097298;28;20087;-70
2023/06/22 03:13:41;;;;;;;10.30;5.00;;;22.60;99.90;;;;;;5114537;28;20063;-71
2023/06/22 03:16:07;;;;;;;14.18;5.32;;;22.60;99.90;;;;;;5114298;28;20518;-70
2023/06/22 03:18:32;;;;;;;11.70;4.95;;;22.60;99.90;;;;;;5115129;28;20070;-70
2023/06/22 03:20:58;;;;;;;11.57;5.25;;;22.60;99.90;;;;;;5096869;28;20452;-71
2023/06/22 03:23:24;;;;;;;9.93;4.47;;;22.50;99.90;;;;;;5115034;28;20365;-70
2023/06/22 03:25:49;;;;;;;10.55;5.10;;;22.50;99.90;;;;;;5114492;28;20448;-71
2023/06/22 03:28:15;;;;;;;9.40;4.82;;;22.50;99.90;;;;;;5114992;28;20076;-70
2023/06/22 03:30:40;;;;;;;13.25;5.55;;;22.50;99.90;;;;;;5114523;28;20024;-71
2023/06/22 03:33:06;;;;;;;7.78;4.78;;;22.50;99.90;;;;;;5114943;28;20107;-70
2023/06/22 03:35:32;;;;;;;14.07;4.78;;;22.50;99.90;;;;;;5115202;28;20026;-70
2023/06/22 03:37:57;;;;;;;13.02;6.00;;;22.50;99.90;;;;;;5114140;28;20456;-71
2023/06/22 03:40:23;;;;;;;7.20;4.63;;;22.50;99.90;;;;;;5114850;28;20036;-71
2023/06/22 03:42:49;;;;;;;13.25;5.25;;;22.50;99.90;;;;;;5117004;27;20024;-70
2023/06/22 03:45:14;;;;;;;11.18;5.82;;;22.50;99.90;;;;;;5134856;27;20080;-70
2023/06/22 03:47:40;;;;;;;13.43;5.30;;;22.50;99.90;;;;;;5134767;27;20388;-70
2023/06/22 03:50:06;;;;;;;12.35;5.47;;;22.50;99.90;;;;;;5134947;27;20534;-70
2023/06/22 03:52:32;;;;;;;9.45;4.85;;;22.50;99.90;;;;;;5134924;27;20027;-70
2023/06/22 03:54:58;;;;;;;9.32;5.20;;;22.50;99.90;;;;;;5126895;27;20380;-70
2023/06/22 03:57:23;;;;;;;13.75;5.63;;;22.50;99.90;;;;;;5114673;28;20066;-70
2023/06/22 03:59:50;;;;;;;12.43;5.47;;;22.60;99.90;;;;;;5113812;28;20072;-71
2023/06/22 04:02:15;;;;;;;13.82;5.55;;;22.60;99.90;;;;;;5114280;28;20016;-71
2023/06/22 04:04:41;;;;;;;12.90;5.82;;;22.60;99.90;;;;;;5113645;28;20019;-70
2023/06/22 04:07:07;;;;;;;7.93;5.13;;;22.70;99.90;;;;;;5114088;28;20085;-71
2023/06/22 04:09:33;;;;;;;16.73;5.25;;;22.70;99.90;;;;;;5114180;28;20114;-71
2023/06/22 04:11:58;;;;;;;15.95;5.40;;;22.80;99.90;;;;;;5113705;28;20098;-71
2023/06/22 04:14:24;;;;;;;10.90;4.93;;;22.80;99.90;;;;;;5114055;28;20024;-71
2023/06/22 04:16:50;;;;;;;11.20;5.18;;;22.90;99.90;;;;;;5113681;28;20062;-71
2023/06/22 04:19:17;;;;;;;8.40;4.53;;;23.00;99.90;;;;;;5113683;28;20525;-71
2023/06/22 04:21:44;;;;;;;9.52;5.32;;;23.10;99.90;;;;;;5113485;28;20376;-71
2023/06/22 04:24:11;;;;;;;10.90;5.22;;;23.20;99.90;;;;;;5113827;28;20027;-71
2023/06/22 04:26:37;;;;;;;17.52;6.35;;;23.20;99.90;;;;;;5095638;28;20034;-71
2023/06/22 04:29:05;;;;;;;15.90;5.68;;;23.30;99.90;;;;;;5112944;28;20039;-71
2023/06/22 04:31:36;;;;;;;17.23;6.88;;;23.50;99.90;;;;;;5113974;28;20055;-71
2023/06/22 04:34:06;;;;;;;14.63;6.57;;;23.60;99.90;;;;;;5113535;28;20081;-71
2023/06/22 04:36:37;;;;;;;11.85;6.68;;;23.60;99.90;;;;;;5113752;28;20023;-72
2023/06/22 04:39:05;;;;;;;17.05;6.28;;;23.70;99.90;;;;;;5113180;28;20032;-71
2023/06/22 04:41:41;;;;;;;14.00;6.43;;;23.80;99.90;;;;;;5114082;27;20063;-71
2023/06/22 04:44:11;;;;;;;15.02;6.13;;;24.00;99.90;;;;;;5114059;27;20032;-71
2023/06/22 04:46:38;;;;;;;16.13;5.95;;;24.10;99.90;;;;;;5113043;28;20078;-71
2023/06/22 04:49:09;;;;;;;13.73;6.30;;;24.30;99.90;;;;;;5112720;28;20027;-70
2023/06/22 04:51:44;;;;;;;13.23;5.68;;;24.50;99.60;;;;;;5113404;28;20024;-70
2023/06/22 04:54:10;;;;;;;11.23;5.38;;;24.70;97.70;;;;;;5113448;28;20058;-71
2023/06/22 04:56:35;;;;;;;9.45;5.10;;;24.90;97.10;;;;;;5113236;28;20027;-72
2023/06/22 04:59:03;;;;;;;13.40;5.75;;;25.10;96.60;;;;;;5094527;28;20030;-72
2023/06/22 05:01:30;;;;;;;13.50;5.60;;;25.40;95.60;;;;;;5113419;28;20367;-71
2023/06/22 05:03:57;;;;;;;11.50;5.05;;;25.70;94.50;;;;;;5112746;28;20114;-70
2023/06/22 05:06:26;;;;;;;8.90;5.18;;;26.10;93.50;;;;;;5113055;28;20035;-70
2023/06/22 05:08:57;;;;;;;14.63;5.18;;;26.40;92.40;;;;;;5113140;28;20031;-72
2023/06/22 05:11:24;;;;;;;12.43;5.65;;;26.70;91.30;;;;;;5113521;28;20032;-72
2023/06/22 05:13:49;;;;;;;12.77;5.55;;;27.00;90.10;;;;;;5112452;28;20357;-72
2023/06/22 05:16:15;;;;;;;11.63;5.55;;;27.20;87.80;;;;;;5113209;28;20093;-71
2023/06/22 05:18:41;;;;;;;13.40;4.93;;;27.50;86.60;;;;;;5113094;28;20031;-72
2023/06/22 05:21:07;;;;;;;9.32;4.82;;;27.90;85.00;;;;;;5113038;28;20069;-71
2023/06/22 05:23:32;;;;;;;10.25;4.72;;;28.10;83.50;;;;;;5112842;28;20051;-72
2023/06/22 05:25:58;;;;;;;13.02;5.03;;;28.30;81.70;;;;;;5112854;28;20099;-71
2023/06/22 05:28:24;;;;;;;11.10;5.10;;;28.10;81.30;;;;;;5113267;28;20464;-71
2023/06/22 05:30:49;;;;;;;8.35;4.53;;;28.00;81.00;;;;;;5112574;28;20027;-71
2023/06/22 05:33:15;;;;;;;9.45;4.90;;;27.90;81.10;;;;;;5112722;28;20406;-71
2023/06/22 05:35:41;;;;;;;12.98;5.35;;;28.10;82.60;;;;;;5112957;28;20102;-71
2023/06/22 05:38:06;;;;;;;14.60;5.13;;;28.10;81.50;;;;;;5112304;28;20058;-71
2023/06/22 05:40:32;;;;;;;14.02;5.57;;;28.40;80.40;;;;;;5115994;28;20040;-71
2023/06/22 05:43:00;;;;;;;10.95;5.03;;;28.50;79.70;;;;;;5116414;28;20024;-71
2023/06/22 05:45:26;;;;;;;10.95;5.43;;;28.70;80.10;;;;;;5116614;28;20059;-73
2023/06/22 05:47:51;;;;;;;9.57;5.50;;;29.00;78.30;;;;;;5116368;28;20035;-72
2023/06/22 05:50:17;;;;;;;19.58;7.20;;;29.20;77.10;;;;;;5117806;27;20058;-70
2023/06/22 05:52:43;;;;;;;13.43;5.78;;;29.30;77.20;;;;;;5116739;28;20376;-70
2023/06/22 05:55:08;;;;;;;11.65;5.55;;;29.50;76.40;;;;;;5116460;28;20460;-71
2023/06/22 05:57:34;;;;;;;13.18;5.88;;;29.90;75.50;;;;;;5116473;28;20031;-71
2023/06/22 06:00:00;;;;;;;11.77;5.10;;;30.20;74.20;;;;;;5116083;28;20028;-71
2023/06/22 06:02:25;;;;;;;10.75;5.28;;;30.50;73.30;;;;;;5115962;28;20161;-73
2023/06/22 06:04:52;;;;;;;17.33;6.63;;;30.70;72.20;;;;;;5133661;27;20020;-73
2023/06/22 06:07:18;;;;;;;12.73;6.07;;;31.10;70.00;;;;;;5137022;27;20031;-71
2023/06/22 06:09:44;;;;;;;15.57;6.93;;;31.30;70.00;;;;;;5136969;27;20027;-72
2023/06/22 06:12:09;;;;;;;15.60;6.75;;;31.80;68.60;;;;;;5136537;27;20075;-72
2023/06/22 06:14:35;;;;;;;11.20;6.60;;;32.10;67.90;;;;;;5136855;27;20049;-72
2023/06/22 06:17:00;;;;;;;21.33;7.70;;;32.50;67.70;;;;;;5136372;27;20019;-72
2023/06/22 06:19:26;;;;;;;13.07;6.72;;;32.70;65.90;;;;;;5136718;27;20035;-72
2023/06/22 06:21:52;;;;;;;15.35;7.50;;;33.10;64.40;;;;;;5136107;27;20034;-70
2023/06/22 06:24:17;;;;;;;19.50;7.63;;;33.40;63.60;;;;;;5136386;27;20111;-71
2023/06/22 06:26:43;;;;;;;16.85;7.45;;;33.80;63.10;;;;;;5136554;27;20362;-71
2023/06/22 06:29:08;;;;;;;21.80;9.70;;;34.30;60.40;;;;;;5136085;27;20419;-71
2023/06/22 06:31:34;;;;;;;16.48;8.50;;;34.60;59.80;;;;;;5136619;27;20479;-71
2023/06/22 06:34:00;;;;;;;21.58;8.95;;;34.60;59.50;;;;;;5118456;27;20070;-71
2023/06/22 06:36:26;;;;;;;17.08;9.27;;;35.10;58.80;;;;;;5115961;28;20023;-72
2023/06/22 06:38:51;;;;;;;14.18;8.60;;;35.30;57.30;;;;;;5115422;28;20028;-72
2023/06/22 06:41:17;;;;;;;20.77;10.50;;;35.40;57.30;;;;;;5115613;28;20034;-71
2023/06/22 06:43:43;;;;;;;22.02;10.10;;;35.70;56.10;;;;;;5115882;28;20046;-71
2023/06/22 06:46:09;;;;;;;17.67;10.50;;;35.90;55.30;;;;;;5114931;28;20062;-71
2023/06/22 06:48:35;;;;;;;18.20;11.48;;;35.90;55.40;;;;;;5115555;28;20032;-71
2023/06/22 06:51:02;;;;;;;17.77;11.07;;;36.10;54.50;;;;;;5114099;28;20040;-71
2023/06/22 06:53:28;;;;;;;16.65;10.27;;;36.10;54.70;;;;;;5115472;28;20020;-71
2023/06/22 06:55:54;;;;;;;23.33;11.02;;;36.60;54.40;;;;;;5114938;28;20092;-71
2023/06/22 06:58:20;;;;;;;21.13;11.35;;;36.90;53.00;;;;;;5115147;28;20038;-71
2023/06/22 07:00:45;;;;;;;16.80;10.93;;;36.50;52.50;;;;;;5114991;28;20379;-71
2023/06/22 07:03:11;;;;;;;23.60;11.00;;;36.30;52.90;;;;;;5114683;28;20098;-71
2023/06/22 07:05:37;;;;;;;18.95;11.35;;;36.40;52.90;;;;;;5115142;28;20024;-71
2023/06/22 07:08:02;;;;;;;20.25;10.90;;;35.90;54.00;;;;;;5114598;28;20023;-71
2023/06/22 07:10:29;;;;;;;20.70;11.25;;;35.60;54.30;;;;;;5115138;28;20027;-71
2023/06/22 07:12:54;;;;;;;18.58;11.27;;;35.80;54.40;;;;;;5114730;28;20106;-72
2023/06/22 07:15:20;;;;;;;19.13;10.35;;;36.10;53.30;;;;;;5097069;28;20170;-72
2023/06/22 07:17:46;;;;;;;18.08;9.45;;;36.30;53.80;;;;;;5114964;28;20027;-71
2023/06/22 07:20:12;;;;;;;20.60;10.45;;;36.40;54.00;;;;;;5096209;28;20023;-71
2023/06/22 07:22:38;;;;;;;23.00;12.25;;;36.80;52.50;;;;;;5114718;28;20030;-71
2023/06/22 07:25:08;;;;;;;21.25;11.32;;;36.40;52.60;;;;;;5114155;28;20035;-71
2023/06/22 07:27:42;;;;;;;21.67;11.10;;;36.50;52.80;;;;;;5115108;28;20023;-71
2023/06/22 07:30:09;;;;;;;20.65;11.13;;;36.40;52.80;;;;;;5113976;28;20032;-71
2023/06/22 07:32:35;;;;;;;27.80;11.90;;;36.50;53.50;;;;;;5114635;28;20024;-71
2023/06/22 07:35:02;;;;;;;21.35;10.23;;;36.60;52.30;;;;;;5095971;28;20452;-71
2023/06/22 07:37:28;;;;;;;24.10;10.68;;;36.90;52.10;;;;;;5114610;28;20077;-73
2023/06/22 07:39:58;;;;;;;23.67;11.85;;;36.50;52.80;;;;;;5114091;28;20468;-72
2023/06/22 07:42:24;;;;;;;27.90;12.03;;;36.30;52.40;;;;;;5114573;28;20024;-71
2023/06/22 07:44:50;;;;;;;16.85;9.35;;;36.10;53.90;;;;;;5114348;28;20027;-71
2023/06/22 07:47:19;;;;;;;17.75;10.18;;;36.40;53.60;;;;;;5113377;28;20075;-72
2023/06/22 07:49:45;;;;;;;20.73;11.05;;;35.90;53.80;;;;;;5114155;28;20042;-71
2023/06/22 07:52:11;;;;;;;22.30;10.88;;;36.40;53.40;;;;;;5114030;28;20031;-72
2023/06/22 07:54:36;;;;;;;20.05;9.60;;;36.40;52.80;;;;;;5114277;28;20098;-72
2023/06/22 07:57:02;;;;;;;18.30;9.98;;;36.50;52.60;;;;;;5113510;28;20027;-72
2023/06/22 07:59:28;;;;;;;17.20;8.98;;;36.20;52.60;;;;;;5114229;28;20039;-72
2023/06/22 08:01:55;;;;;;;19.67;9.95;;;36.10;53.30;;;;;;5124579;27;20043;-78
2023/06/22 08:04:21;;;;;;;17.60;8.43;;;36.20;53.60;;;;;;5118679;27;20094;-72
2023/06/22 08:06:46;;;;;;;19.80;10.40;;;36.20;53.00;;;;;;5114105;28;20490;-72
2023/06/22 08:09:12;;;;;;;17.52;8.93;;;36.00;52.50;;;;;;5113659;28;20027;-72
2023/06/22 08:11:38;;;;;;;14.85;9.38;;;36.20;52.50;;;;;;5114235;28;20023;-72
2023/06/22 08:14:03;;;;;;;21.90;11.02;;;36.40;52.70;;;;;;5113544;28;20457;-72
2023/06/22 08:16:29;;;;;;;17.80;10.10;;;36.30;52.70;;;;;;5114099;28;20035;-73
2023/06/22 08:18:55;;;;;;;20.15;9.85;;;35.70;53.60;;;;;;5113219;28;20032;-79
2023/06/22 08:21:20;;;;;;;16.98;9.35;;;35.50;55.20;;;;;;5113810;28;20125;-72
2023/06/22 08:23:46;;;;;;;17.92;9.85;;;35.00;54.50;;;;;;5113606;28;20056;-72
2023/06/22 08:26:12;;;;;;;18.58;9.07;;;34.70;54.70;;;;;;5113303;28;20030;-72
2023/06/22 08:28:37;;;;;;;19.23;10.32;;;34.80;54.90;;;;;;5113653;28;20096;-71
2023/06/22 08:31:03;;;;;;;23.17;8.73;;;35.00;53.90;;;;;;5114058;27;20031;-71
2023/06/22 08:33:30;;;;;;;15.52;8.85;;;34.80;53.30;;;;;;5114916;27;20080;-73
2023/06/22 08:35:56;;;;;;;16.58;8.57;;;34.70;53.50;;;;;;5113369;28;20383;-71
2023/06/22 08:38:22;;;;;;;18.25;8.82;;;34.70;54.40;;;;;;5113409;28;20421;-71
2023/06/22 08:40:47;;;;;;;13.52;8.80;;;34.70;54.60;;;;;;5113385;28;20062;-70
2023/06/22 08:43:14;;;;;;;19.80;8.38;;;34.30;54.20;;;;;;5094715;28;20035;-73
2023/06/22 08:45:40;;;;;;;18.38;8.38;;;34.00;55.10;;;;;;5113149;28;20135;-71
2023/06/22 08:48:05;;;;;;;16.45;8.15;;;34.10;56.20;;;;;;5112982;28;20448;-70
2023/06/22 08:50:31;;;;;;;19.15;7.95;;;33.90;55.40;;;;;;5113208;28;20050;-71
2023/06/22 08:52:57;;;;;;;23.98;9.25;;;33.70;55.60;;;;;;5113235;28;20475;-70
2023/06/22 08:55:22;;;;;;;15.95;8.30;;;33.40;56.30;;;;;;5113211;28;20035;-70
2023/06/22 08:57:48;;;;;;;16.33;8.52;;;33.00;57.80;;;;;;5113094;28;20082;-72
2023/06/22 09:00:17;;;;;;;13.13;7.25;;;33.20;58.70;;;;;;5112943;28;20028;-71
2023/06/22 09:02:44;;;;;;;12.68;7.20;;;33.30;58.30;;;;;;5113033;28;20023;-71
2023/06/22 09:05:10;;;;;;;16.23;7.82;;;33.40;58.00;;;;;;5112651;28;20031;-71
2023/06/22 09:07:35;;;;;;;16.50;8.30;;;33.50;57.80;;;;;;5113343;28;20456;-71
2023/06/22 09:10:02;;;;;;;15.18;8.57;;;33.50;57.80;;;;;;5112599;28;20159;-72
2023/06/22 09:12:30;;;;;;;16.02;8.00;;;33.30;57.50;;;;;;5112923;28;20047;-70
2023/06/22 09:14:56;;;;;;;16.50;8.27;;;33.30;57.20;;;;;;5112512;28;20019;-70
2023/06/22 09:17:22;;;;;;;19.38;8.25;;;33.20;58.20;;;;;;5112571;28;20116;-72
2023/06/22 09:19:48;;;;;;;16.35;8.00;;;33.10;57.40;;;;;;5112655;28;20062;-72
2023/06/22 09:22:14;;;;;;;18.92;7.90;;;32.80;58.80;;;;;;5112525;28;20051;-72
2023/06/22 09:24:40;;;;;;;16.08;8.50;;;32.80;59.60;;;;;;5112960;28;20102;-72
2023/06/22 09:27:05;;;;;;;17.42;8.75;;;32.70;59.50;;;;;;5094329;28;20106;-72
2023/06/22 09:29:33;;;;;;;15.13;7.63;;;32.60;59.50;;;;;;5112565;28;20482;-72
2023/06/22 09:32:02;;;;;;;19.27;7.60;;;32.40;60.40;;;;;;5112986;28;20440;-72
2023/06/22 09:34:28;;;;;;;11.63;7.22;;;32.30;60.80;;;;;;5112837;28;20030;-70
2023/06/22 09:36:53;;;;;;;15.77;7.55;;;32.30;61.10;;;;;;5112708;28;20115;-71
2023/06/22 09:39:19;;;;;;;12.07;7.63;;;32.30;61.60;;;;;;5112297;28;20027;-72
2023/06/22 09:41:45;;;;;;;14.10;7.65;;;32.30;61.60;;;;;;5113067;28;20020;-71
2023/06/22 09:44:10;;;;;;;19.35;8.25;;;32.40;61.90;;;;;;5112165;28;20102;-71
2023/06/22 09:46:36;;;;;;;17.73;8.07;;;32.20;61.10;;;;;;5112650;28;20139;-71
2023/06/22 09:49:01;;;;;;;13.20;7.38;;;32.20;61.90;;;;;;5112768;28;20036;-76
2023/06/22 09:51:27;;;;;;;19.55;8.50;;;32.10;62.90;;;;;;5112613;28;20024;-72
2023/06/22 09:53:56;;;;;;;17.08;7.60;;;32.10;63.40;;;;;;5112594;28;20082;-71
2023/06/22 09:56:22;;;;;;;17.55;8.20;;;32.10;63.30;;;;;;5112180;28;20020;-71
2023/06/22 09:58:50;;;;;;;15.73;7.55;;;32.00;63.50;;;;;;5112400;28;20476;-71
2023/06/22 10:01:15;;;;;;;15.95;7.15;;;32.10;63.30;;;;;;5114115;28;20019;-71
2023/06/22 10:03:41;;;;;;;11.95;7.68;;;31.90;62.30;;;;;;5112377;28;20476;-72
2023/06/22 10:06:08;;;;;;;16.05;8.25;;;31.80;63.30;;;;;;5111910;28;20024;-72
2023/06/22 10:08:34;;;;;;;13.27;7.03;;;31.80;63.10;;;;;;5112138;28;20131;-72
2023/06/22 10:10:59;;;;;;;14.85;6.53;;;31.80;62.30;;;;;;5094500;28;20452;-70
2023/06/22 10:13:25;;;;;;;12.57;7.55;;;31.60;62.10;;;;;;5112104;28;20055;-71
2023/06/22 10:15:51;;;;;;;11.65;5.95;;;31.70;63.10;;;;;;5112325;28;20522;-71
2023/06/22 10:18:21;;;;;;;13.75;6.00;;;31.70;62.60;;;;;;5093358;28;20383;-71
2023/06/22 10:20:51;;;;;;;12.43;5.07;;;31.60;61.70;;;;;;5112079;28;20031;-71
2023/06/22 10:23:17;;;;;;;9.10;4.90;;;31.60;62.00;;;;;;5111659;28;20436;-71
2023/06/22 10:25:43;;;;;;;11.68;4.30;;;31.50;61.70;;;;;;5112278;28;20032;-71
2023/06/22 10:28:08;;;;;;;12.50;4.93;;;31.60;60.70;;;;;;5097317;28;20039;-71
2023/06/22 10:30:34;;;;;;;11.05;4.47;;;31.70;60.10;;;;;;5122347;27;20053;-72
2023/06/22 10:33:00;;;;;;;10.95;4.43;;;31.50;59.40;;;;;;5117863;27;20031;-72
2023/06/22 10:35:25;;;;;;;12.95;4.68;;;31.60;59.60;;;;;;5135740;27;20388;-70
2023/06/22 10:37:52;;;;;;;11.68;4.88;;;31.60;59.20;;;;;;5136041;27;20106;-70
2023/06/22 10:40:18;;;;;;;10.10;3.50;;;31.60;59.40;;;;;;5135601;27;20418;-70
2023/06/22 10:42:44;;;;;;;10.82;4.18;;;31.50;58.80;;;;;;5136041;27;20031;-70
2023/06/22 10:45:10;;;;;;;10.32;3.53;;;31.50;58.20;;;;;;5135522;27;20479;-71
2023/06/22 10:47:36;;;;;;;13.27;4.05;;;31.70;58.60;;;;;;5136066;27;20047;-70
2023/06/22 10:50:03;;;;;;;6.93;3.75;;;31.70;58.50;;;;;;5135382;27;20561;-70
2023/06/22 10:52:29;;;;;;;11.30;3.60;;;31.80;59.10;;;;;;5135487;27;20027;-70
2023/06/22 10:54:54;;;;;;;16.55;3.70;;;31.90;58.30;;;;;;5135935;27;20026;-70
2023/06/22 10:57:21;;;;;;;5.65;3.28;;;31.90;57.60;;;;;;5135420;27;20027;-70
2023/06/22 10:59:46;;;;;;;12.18;4.60;;;32.00;57.50;;;;;;5135742;27;20036;-70
2023/06/22 11:02:12;;;;;;;13.38;4.28;;;32.00;56.60;;;;;;5135010;27;20039;-70
2023/06/22 11:04:38;;;;;;;10.07;4.05;;;32.00;55.60;;;;;;5135741;27;20019;-70
2023/06/22 11:07:04;;;;;;;11.13;4.50;;;32.00;56.20;;;;;;5135753;27;20102;-70
2023/06/22 11:09:29;;;;;;;9.43;4.95;;;32.00;56.80;;;;;;5116666;27;20074;-70
2023/06/22 11:11:56;;;;;;;10.63;5.50;;;32.00;56.50;;;;;;5135182;27;20035;-70
2023/06/22 11:14:22;;;;;;;16.50;6.32;;;32.00;57.00;;;;;;5135006;27;20023;-70
2023/06/22 11:16:48;;;;;;;14.35;5.55;;;32.00;56.40;;;;;;5134989;27;20498;-71
2023/06/22 11:19:13;;;;;;;13.70;6.10;;;32.00;56.60;;;;;;5134930;27;20130;-70
2023/06/22 11:21:39;;;;;;;9.30;5.75;;;31.90;56.10;;;;;;5135375;27;20132;-71
2023/06/22 11:24:05;;;;;;;11.13;6.57;;;32.00;57.10;;;;;;5135576;27;20588;-71
2023/06/22 11:26:31;;;;;;;15.13;6.80;;;32.00;56.70;;;;;;5134528;27;20109;-71
2023/06/22 11:28:57;;;;;;;13.35;5.78;;;32.00;56.40;;;;;;5135300;27;20031;-71
2023/06/22 11:31:23;;;;;;;14.15;5.03;;;32.00;56.40;;;;;;5134636;27;20489;-71
2023/06/22 11:33:49;;;;;;;9.48;4.30;;;32.00;56.90;;;;;;5135367;27;20468;-71
2023/06/22 11:36:15;;;;;;;9.48;4.72;;;32.00;56.70;;;;;;5134296;27;20030;-71
2023/06/22 11:38:42;;;;;;;8.18;4.03;;;32.00;57.00;;;;;;5134252;27;20042;-71
2023/06/22 11:41:08;;;;;;;12.98;3.95;;;32.00;57.50;;;;;;5134877;27;20028;-71
2023/06/22 11:43:35;;;;;;;13.88;4.50;;;31.90;57.70;;;;;;5134181;27;20041;-71
2023/06/22 11:46:02;;;;;;;8.50;4.32;;;31.90;57.60;;;;;;5134727;27;20058;-71
2023/06/22 11:48:28;;;;;;;16.85;4.43;;;31.80;57.90;;;;;;5134503;27;20027;-70
2023/06/22 11:50:54;;;;;;;8.38;3.60;;;31.80;57.80;;;;;;5134332;27;20030;-71
2023/06/22 11:53:21;;;;;;;9.23;3.85;;;31.70;57.80;;;;;;5134497;27;20026;-71
2023/06/22 11:55:47;;;;;;;9.80;4.05;;;31.70;57.90;;;;;;5117939;27;20035;-71
2023/06/22 11:58:12;;;;;;;6.47;4.03;;;31.70;58.00;;;;;;5113291;28;20036;-71
2023/06/22 12:00:38;;;;;;;11.18;4.03;;;31.60;58.20;;;;;;5095587;28;20051;-71
2023/06/22 12:03:04;;;;;;;12.07;4.10;;;31.50;58.70;;;;;;5114024;28;20020;-71
2023/06/22 12:05:30;;;;;;;12.43;3.85;;;31.50;58.30;;;;;;5113522;28;20042;-71
2023/06/22 12:07:55;;;;;;;9.23;3.90;;;31.40;58.80;;;;;;5127154;27;20574;-71
2023/06/22 12:10:22;;;;;;;16.85;4.30;;;31.30;59.60;;;;;;5133952;27;20096;-71
2023/06/22 12:12:48;;;;;;;14.52;3.70;;;31.20;59.90;;;;;;5134341;27;20053;-71
2023/06/22 12:15:14;;;;;;;11.27;3.72;;;31.20;60.00;;;;;;5134010;27;20027;-71
2023/06/22 12:17:40;;;;;;;8.98;3.50;;;31.20;60.70;;;;;;5134494;27;20023;-70
2023/06/22 12:20:07;;;;;;;9.10;3.88;;;31.20;59.90;;;;;;5134231;27;20032;-71
2023/06/22 12:22:33;;;;;;;8.40;4.00;;;31.20;59.90;;;;;;5130415;27;20051;-71
2023/06/22 12:24:59;;;;;;;16.85;3.97;;;31.20;59.90;;;;;;5134193;27;20075;-71
2023/06/22 12:27:25;;;;;;;12.43;4.00;;;31.20;59.80;;;;;;5134072;27;20420;-70
2023/06/22 12:29:51;;;;;;;9.05;3.75;;;31.20;59.10;;;;;;5134471;27;20034;-70
2023/06/22 12:32:17;;;;;;;9.57;4.25;;;31.20;59.70;;;;;;5133663;27;20038;-72
2023/06/22 12:34:44;;;;;;;5.82;3.13;;;31.20;60.00;;;;;;5133934;27;20027;-70
2023/06/22 12:37:10;;;;;;;10.10;4.03;;;31.20;59.90;;;;;;5133939;27;20023;-70